Time;durP1;ratioP1;P1;durP2;ratioP2;P2;SDS_P1;SDS_P2;PMS_P1;PMS_P2;Temp;Humidity;BMP_temperature;BMP_pressure;BME280_temperature;BME280_humidity;BME280_pressure;Samples;Min_cycle;Max_cycle;Signal;HPM_P1;HPM_P2
2023/05/10 00:01:41;;;;;;;1.20;1.10;;;22.00;72.30;;;;;;4903859;28;87549;-88
2023/05/10 00:04:06;;;;;;;1.55;1.20;;;21.90;72.10;;;;;;4892736;28;91040;-87
2023/05/10 00:06:32;;;;;;;1.85;1.27;;;21.90;72.20;;;;;;4901649;28;90526;-86
2023/05/10 00:08:58;;;;;;;2.58;1.40;;;21.90;72.10;;;;;;4909129;28;87772;-86
2023/05/10 00:11:23;;;;;;;2.70;1.30;;;21.90;72.20;;;;;;4909070;28;88107;-85
2023/05/10 00:13:49;;;;;;;1.60;1.45;;;21.90;72.30;;;;;;4892330;28;88680;-88
2023/05/10 00:16:15;;;;;;;2.65;1.40;;;21.90;72.30;;;;;;4892957;28;89795;-87
2023/05/10 00:18:41;;;;;;;2.28;1.60;;;21.90;72.40;;;;;;4892001;28;88200;-86
2023/05/10 00:21:06;;;;;;;1.38;1.20;;;21.90;72.30;;;;;;4892467;28;89891;-88
2023/05/10 00:23:32;;;;;;;1.55;1.10;;;21.90;72.30;;;;;;4894296;28;87582;-87
2023/05/10 00:25:58;;;;;;;1.08;0.95;;;21.90;72.10;;;;;;4893863;28;90492;-87
2023/05/10 00:28:24;;;;;;;2.35;1.63;;;21.80;72.00;;;;;;4891531;28;87499;-86
2023/05/10 00:30:49;;;;;;;1.75;1.15;;;21.90;72.20;;;;;;4892225;28;89834;-89
2023/05/10 00:33:15;;;;;;;1.58;1.08;;;21.80;72.10;;;;;;4892728;28;89828;-87
2023/05/10 00:35:41;;;;;;;1.55;1.20;;;21.90;72.20;;;;;;4893356;28;87777;-88
2023/05/10 00:38:06;;;;;;;2.22;1.30;;;21.90;72.30;;;;;;4893483;28;89035;-87
2023/05/10 00:40:32;;;;;;;1.30;1.13;;;21.80;72.20;;;;;;4893703;28;89649;-89
2023/05/10 00:43:00;;;;;;;1.30;1.17;;;21.80;72.30;;;;;;4891979;28;89755;-87
2023/05/10 00:45:26;;;;;;;1.40;1.30;;;21.80;72.20;;;;;;4909110;28;89168;-87
2023/05/10 00:47:54;;;;;;;1.23;1.00;;;21.80;72.30;;;;;;4907777;28;87269;-89
2023/05/10 00:50:23;;;;;;;1.60;1.23;;;21.80;72.20;;;;;;4885921;28;90219;-86
2023/05/10 00:52:50;;;;;;;1.05;0.95;;;21.80;72.30;;;;;;4891615;28;90598;-87
2023/05/10 00:55:16;;;;;;;1.67;1.20;;;21.80;72.30;;;;;;4908951;28;88930;-87
2023/05/10 00:57:42;;;;;;;1.10;1.00;;;21.80;72.30;;;;;;4901437;28;87412;-87
2023/05/10 01:00:09;;;;;;;1.80;1.25;;;21.80;72.00;;;;;;4892162;28;87551;-86
2023/05/10 01:02:35;;;;;;;1.20;1.10;;;21.80;72.20;;;;;;4890680;28;92316;-87
2023/05/10 01:05:03;;;;;;;1.70;1.30;;;21.70;72.20;;;;;;4884888;28;89908;-87
2023/05/10 01:07:29;;;;;;;2.00;1.40;;;21.70;72.20;;;;;;4904746;28;87544;-90
2023/05/10 01:09:55;;;;;;;1.65;0.95;;;21.80;72.20;;;;;;4891760;28;87920;-88
2023/05/10 01:12:21;;;;;;;1.20;1.10;;;21.80;72.30;;;;;;4893608;28;88149;-89
2023/05/10 01:14:47;;;;;;;1.50;1.20;;;21.70;72.20;;;;;;4892608;28;89158;-88
2023/05/10 01:17:14;;;;;;;1.52;1.08;;;21.70;72.10;;;;;;4893159;28;87569;-87
2023/05/10 01:19:40;;;;;;;1.85;1.38;;;21.70;72.10;;;;;;4893289;28;89791;-89
2023/05/10 01:22:25;;;;;;;1.52;1.10;;;21.70;71.90;;;;;;4909076;28;93266;-88
2023/05/10 01:25:23;;;;;;;2.40;1.27;;;21.70;72.00;;;;;;4908367;28;89345;-87
2023/05/10 01:28:01;;;;;;;1.45;1.15;;;21.70;72.20;;;;;;4891966;28;88346;-88
2023/05/10 01:30:35;;;;;;;1.08;0.95;;;21.70;71.90;;;;;;4908306;28;88106;-88
2023/05/10 01:33:04;;;;;;;1.50;1.13;;;21.70;72.20;;;;;;4901751;28;89274;-86
2023/05/10 01:35:58;;;;;;;1.88;1.38;;;21.70;72.10;;;;;;4898321;28;87572;-87
2023/05/10 01:38:38;;;;;;;1.90;1.23;;;21.70;72.00;;;;;;4893839;28;87408;-88
2023/05/10 01:41:13;;;;;;;1.55;1.27;;;21.70;72.00;;;;;;4894334;28;89397;-87
2023/05/10 01:43:49;;;;;;;1.50;1.10;;;21.60;72.10;;;;;;4911727;28;89558;-86
2023/05/10 01:46:21;;;;;;;2.17;1.25;;;21.70;72.00;;;;;;4911767;28;94391;-87
2023/05/10 01:48:53;;;;;;;1.30;1.15;;;21.60;71.90;;;;;;4911561;28;87474;-88
2023/05/10 01:51:25;;;;;;;1.20;1.10;;;21.60;72.10;;;;;;4897038;28;86954;-91
2023/05/10 01:53:58;;;;;;;2.25;1.17;;;21.60;72.00;;;;;;4894819;28;91402;-88
2023/05/10 01:56:27;;;;;;;1.30;1.20;;;21.60;72.10;;;;;;4904285;28;89971;-90
2023/05/10 01:58:55;;;;;;;1.45;1.05;;;21.60;71.90;;;;;;4895220;28;86942;-88
2023/05/10 02:01:22;;;;;;;1.02;0.93;;;21.60;71.70;;;;;;4896296;28;89290;-88
2023/05/10 02:03:50;;;;;;;2.70;1.30;;;21.60;71.80;;;;;;4895144;28;91272;-87
2023/05/10 02:06:19;;;;;;;1.70;1.10;;;21.60;71.70;;;;;;4910649;28;90537;-87
2023/05/10 02:08:46;;;;;;;1.25;0.98;;;21.60;71.90;;;;;;4894577;28;87873;-87
2023/05/10 02:11:13;;;;;;;1.75;1.13;;;21.60;71.70;;;;;;4895316;28;86444;-89
2023/05/10 02:13:41;;;;;;;2.63;1.13;;;21.60;71.80;;;;;;4894705;28;90010;-88
2023/05/10 02:16:08;;;;;;;1.83;1.20;;;21.60;71.80;;;;;;4895868;28;94390;-88
2023/05/10 02:18:35;;;;;;;1.40;1.20;;;21.60;71.80;;;;;;4909470;28;88267;-88
2023/05/10 02:21:02;;;;;;;1.48;1.30;;;21.60;71.80;;;;;;4894655;28;88368;-88
2023/05/10 02:23:30;;;;;;;1.17;1.08;;;21.50;71.90;;;;;;4893120;28;89501;-87
2023/05/10 02:25:57;;;;;;;1.27;1.13;;;21.60;71.80;;;;;;4895944;28;87602;-88
2023/05/10 02:28:24;;;;;;;1.42;1.10;;;21.50;71.90;;;;;;4896608;28;87688;-87
2023/05/10 02:30:52;;;;;;;1.30;1.20;;;21.50;71.90;;;;;;4893859;28;89641;-86
2023/05/10 02:33:19;;;;;;;2.05;1.02;;;21.50;71.70;;;;;;4896775;28;88559;-86
2023/05/10 02:35:46;;;;;;;1.10;1.00;;;21.50;71.60;;;;;;4895787;28;89949;-87
2023/05/10 02:38:14;;;;;;;1.38;1.00;;;21.50;71.60;;;;;;4896650;28;87326;-89
2023/05/10 02:40:42;;;;;;;1.65;1.15;;;21.50;71.60;;;;;;4897024;28;89594;-88
2023/05/10 02:43:11;;;;;;;1.58;1.15;;;21.50;71.60;;;;;;4910171;28;96522;-87
2023/05/10 02:45:40;;;;;;;1.20;1.10;;;21.50;71.70;;;;;;4895590;28;91435;-87
2023/05/10 02:48:06;;;;;;;1.30;1.00;;;21.50;71.90;;;;;;4894317;28;87361;-87
2023/05/10 02:50:33;;;;;;;1.83;1.20;;;21.50;71.70;;;;;;4892898;28;89731;-86
2023/05/10 02:53:09;;;;;;;1.10;0.95;;;21.50;71.70;;;;;;4894017;28;89850;-88
2023/05/10 02:55:38;;;;;;;1.48;0.98;;;21.50;71.80;;;;;;4896146;28;87796;-88
2023/05/10 02:58:05;;;;;;;1.45;1.35;;;21.50;71.70;;;;;;4910354;28;87859;-88
2023/05/10 03:00:31;;;;;;;1.20;1.10;;;21.50;71.80;;;;;;4895558;28;89190;-87
2023/05/10 03:02:57;;;;;;;1.05;0.82;;;21.50;72.00;;;;;;4910404;28;89728;-88
2023/05/10 03:05:23;;;;;;;0.82;0.82;;;21.50;71.70;;;;;;4895532;28;87792;-86
2023/05/10 03:07:49;;;;;;;1.88;1.20;;;21.50;71.70;;;;;;4910513;28;88930;-90
2023/05/10 03:10:15;;;;;;;2.00;1.30;;;21.50;71.70;;;;;;4911515;28;90097;-88
2023/05/10 03:12:54;;;;;;;1.27;1.00;;;21.50;71.90;;;;;;4893918;28;89418;-86
2023/05/10 03:15:55;;;;;;;1.60;1.20;;;21.50;71.70;;;;;;4910365;28;88006;-87
2023/05/10 03:18:30;;;;;;;1.55;1.30;;;21.50;71.70;;;;;;4893613;28;87933;-89
2023/05/10 03:21:02;;;;;;;2.20;1.00;;;21.40;71.70;;;;;;4894240;28;89742;-87
2023/05/10 03:23:46;;;;;;;0.93;0.82;;;21.50;71.80;;;;;;4909929;28;90695;-86
2023/05/10 03:26:17;;;;;;;1.20;1.00;;;21.50;71.70;;;;;;4910767;28;90669;-87
2023/05/10 03:28:44;;;;;;;1.80;1.05;;;21.40;71.60;;;;;;4884599;28;87821;-87
2023/05/10 03:31:10;;;;;;;1.17;1.00;;;21.40;71.60;;;;;;4893524;28;89465;-88
2023/05/10 03:33:35;;;;;;;1.75;1.20;;;21.40;71.60;;;;;;4909595;28;89681;-86
2023/05/10 03:36:01;;;;;;;1.80;1.25;;;21.40;71.60;;;;;;4893756;28;91715;-89
2023/05/10 03:38:27;;;;;;;1.25;1.15;;;21.40;71.70;;;;;;4910797;28;87312;-87
2023/05/10 03:40:52;;;;;;;1.52;1.10;;;21.40;71.70;;;;;;4896644;28;87361;-88
2023/05/10 03:43:18;;;;;;;2.88;1.20;;;21.40;71.60;;;;;;4894577;28;89132;-87
2023/05/10 03:45:44;;;;;;;1.27;1.10;;;21.40;71.70;;;;;;4893756;28;89385;-88
2023/05/10 03:48:09;;;;;;;1.30;1.13;;;21.40;71.70;;;;;;4895136;28;87401;-87
2023/05/10 03:50:35;;;;;;;1.85;1.17;;;21.40;71.60;;;;;;4894690;28;86896;-87
2023/05/10 03:53:02;;;;;;;1.48;1.05;;;21.40;71.60;;;;;;4909894;28;93295;-87
2023/05/10 03:55:28;;;;;;;2.08;1.38;;;21.40;72.40;;;;;;4909780;28;89010;-89
2023/05/10 03:57:53;;;;;;;1.15;1.05;;;21.40;71.60;;;;;;4892939;28;88065;-89
2023/05/10 04:00:19;;;;;;;1.42;1.30;;;21.40;71.40;;;;;;4909424;28;89483;-89
2023/05/10 04:02:45;;;;;;;1.30;1.10;;;21.40;71.50;;;;;;4892046;28;89723;-89
2023/05/10 04:05:11;;;;;;;1.38;1.10;;;21.40;71.50;;;;;;4893283;28;90498;-87
2023/05/10 04:07:37;;;;;;;1.30;1.20;;;21.40;71.70;;;;;;4894596;28;87215;-87
2023/05/10 04:10:02;;;;;;;1.35;1.25;;;21.40;71.70;;;;;;4901753;28;87736;-87
2023/05/10 04:12:28;;;;;;;1.85;1.35;;;21.30;71.50;;;;;;4892639;28;89282;-87
2023/05/10 04:14:54;;;;;;;1.45;1.13;;;21.40;71.60;;;;;;4908339;28;90062;-88
2023/05/10 04:17:19;;;;;;;2.47;1.15;;;21.40;71.60;;;;;;4909094;28;87279;-87
2023/05/10 04:19:45;;;;;;;1.30;1.20;;;21.40;71.50;;;;;;4893575;28;89559;-87
2023/05/10 04:22:11;;;;;;;1.77;1.13;;;21.30;71.40;;;;;;4894973;28;89042;-86
2023/05/10 04:24:36;;;;;;;1.48;0.98;;;21.30;71.50;;;;;;4892858;28;89535;-88
2023/05/10 04:27:02;;;;;;;1.60;1.25;;;21.30;71.50;;;;;;4893837;28;87291;-87
2023/05/10 04:29:27;;;;;;;2.15;1.13;;;21.30;71.70;;;;;;4893710;28;88567;-87
2023/05/10 04:31:54;;;;;;;1.55;1.15;;;21.30;71.70;;;;;;4908235;28;90517;-91
2023/05/10 04:34:21;;;;;;;2.20;1.10;;;21.30;71.50;;;;;;4894432;28;90354;-87
2023/05/10 04:36:46;;;;;;;0.95;0.90;;;21.30;71.40;;;;;;4894299;28;87597;-87
2023/05/10 04:39:13;;;;;;;1.60;1.00;;;21.30;71.10;;;;;;4895127;28;86306;-88
2023/05/10 04:41:39;;;;;;;1.00;1.00;;;21.30;71.40;;;;;;4893508;28;90164;-88
2023/05/10 04:44:05;;;;;;;1.25;1.10;;;21.30;71.20;;;;;;4893681;28;90177;-86
2023/05/10 04:46:30;;;;;;;1.15;1.05;;;21.30;71.10;;;;;;4893036;28;88252;-89
2023/05/10 04:48:56;;;;;;;1.33;1.23;;;21.30;71.30;;;;;;4892425;28;88269;-89
2023/05/10 04:51:21;;;;;;;1.10;1.00;;;21.30;71.40;;;;;;4891965;28;90797;-88
2023/05/10 04:53:47;;;;;;;1.27;0.90;;;21.30;71.30;;;;;;4893379;28;87987;-87
2023/05/10 04:56:13;;;;;;;1.00;0.90;;;21.30;71.30;;;;;;4892439;28;87493;-88
2023/05/10 04:58:39;;;;;;;2.08;1.33;;;21.30;71.40;;;;;;4895043;28;86928;-88
2023/05/10 05:01:09;;;;;;;1.48;1.38;;;21.30;71.40;;;;;;4892077;28;89854;-88
2023/05/10 05:03:35;;;;;;;3.33;1.25;;;21.30;71.50;;;;;;4909398;28;90224;-88
2023/05/10 05:06:00;;;;;;;0.77;0.77;;;21.30;71.50;;;;;;4893695;28;87393;-88
2023/05/10 05:08:26;;;;;;;1.50;1.10;;;21.30;71.50;;;;;;4892345;28;88731;-88
2023/05/10 05:10:52;;;;;;;1.63;0.90;;;21.30;71.40;;;;;;4893582;28;89114;-87
2023/05/10 05:13:18;;;;;;;0.98;0.98;;;21.30;71.30;;;;;;4894115;28;90906;-86
2023/05/10 05:15:44;;;;;;;0.98;0.85;;;21.30;71.50;;;;;;4896608;28;87780;-89
2023/05/10 05:18:10;;;;;;;1.42;1.33;;;21.30;71.30;;;;;;4898764;28;87242;-88
2023/05/10 05:20:35;;;;;;;1.20;1.10;;;21.30;71.20;;;;;;4887321;28;90999;-86
2023/05/10 05:23:01;;;;;;;1.23;1.13;;;21.30;70.60;;;;;;4898786;28;87286;-92
2023/05/10 05:25:27;;;;;;;2.58;1.40;;;21.50;69.50;;;;;;4905698;28;87369;-94
2023/05/10 05:27:53;;;;;;;3.15;1.60;;;21.40;69.00;;;;;;4903604;28;90073;-92
2023/05/10 05:30:18;;;;;;;2.38;1.48;;;21.40;69.30;;;;;;4904632;28;90407;-93
2023/05/10 05:32:44;;;;;;;3.05;1.58;;;21.50;67.80;;;;;;4903689;28;90160;-94
2023/05/10 05:35:10;;;;;;;2.10;1.50;;;21.70;67.30;;;;;;4902995;28;88520;-90
2023/05/10 05:37:37;;;;;;;4.30;1.95;;;21.70;67.00;;;;;;4913520;28;88338;-89
2023/05/10 05:40:03;;;;;;;5.15;2.10;;;21.60;68.20;;;;;;4898825;28;89778;-86
2023/05/10 05:42:30;;;;;;;5.25;1.88;;;21.60;69.10;;;;;;4901057;28;87941;-89
2023/05/10 05:44:56;;;;;;;3.95;2.00;;;21.60;69.20;;;;;;4900015;28;87527;-89
2023/05/10 05:47:21;;;;;;;4.97;2.28;;;21.50;69.60;;;;;;4898674;28;88228;-93
2023/05/10 05:49:47;;;;;;;3.88;2.30;;;21.50;70.60;;;;;;4899281;28;89678;-90
2023/05/10 05:52:13;;;;;;;3.25;2.08;;;21.50;70.50;;;;;;4901484;28;89673;-89
2023/05/10 05:54:39;;;;;;;7.10;3.00;;;21.50;69.30;;;;;;4900056;28;87658;-91
2023/05/10 05:57:07;;;;;;;4.43;2.30;;;21.60;69.80;;;;;;4900991;28;89123;-89
2023/05/10 05:59:33;;;;;;;3.22;2.33;;;21.60;70.10;;;;;;4899253;28;91535;-88
2023/05/10 06:01:58;;;;;;;5.53;2.75;;;21.50;70.30;;;;;;4900890;28;89750;-91
2023/05/10 06:04:24;;;;;;;4.43;2.13;;;21.40;70.60;;;;;;4917540;28;88010;-91
2023/05/10 06:06:50;;;;;;;8.43;2.50;;;21.40;70.80;;;;;;4916772;28;88063;-90
2023/05/10 06:09:15;;;;;;;9.40;2.47;;;21.30;71.20;;;;;;4917443;28;90527;-90
2023/05/10 06:11:41;;;;;;;5.97;2.20;;;21.30;71.10;;;;;;4900564;28;89929;-91
2023/05/10 06:14:07;;;;;;;5.07;2.42;;;21.30;71.30;;;;;;4915149;28;86932;-90
2023/05/10 06:16:35;;;;;;;3.88;2.42;;;21.30;71.30;;;;;;4898850;28;89381;-89
2023/05/10 06:19:05;;;;;;;4.43;2.20;;;21.40;71.60;;;;;;4884918;28;89204;-90
2023/05/10 06:21:30;;;;;;;3.92;2.30;;;21.40;71.20;;;;;;4899890;28;89651;-90
2023/05/10 06:23:56;;;;;;;9.60;2.63;;;21.40;71.60;;;;;;4905974;28;88097;-88
2023/05/10 06:26:22;;;;;;;5.40;2.58;;;21.30;71.80;;;;;;4903245;28;89312;-87
2023/05/10 06:28:48;;;;;;;7.55;2.53;;;21.30;71.80;;;;;;4881283;28;90721;-93
2023/05/10 06:31:14;;;;;;;3.95;2.20;;;21.40;71.60;;;;;;4893290;28;89895;-90
2023/05/10 06:33:40;;;;;;;7.78;2.50;;;21.30;71.40;;;;;;4907497;28;87206;-91
2023/05/10 06:36:06;;;;;;;6.80;2.55;;;21.40;71.50;;;;;;4906825;28;89165;-92
2023/05/10 06:38:32;;;;;;;5.15;2.53;;;21.30;71.80;;;;;;4921261;28;89213;-90
2023/05/10 06:40:57;;;;;;;6.95;2.72;;;21.30;71.20;;;;;;4919782;28;89178;-86
2023/05/10 06:43:24;;;;;;;12.88;3.38;;;21.50;71.00;;;;;;4907282;28;86990;-91
2023/05/10 06:45:50;;;;;;;7.03;2.67;;;21.50;70.20;;;;;;4908545;28;89104;-92
2023/05/10 06:48:16;;;;;;;8.02;2.90;;;21.50;70.60;;;;;;4904727;28;90231;-92
2023/05/10 06:50:42;;;;;;;7.97;2.85;;;21.40;70.90;;;;;;4902108;28;89987;-92
2023/05/10 06:53:08;;;;;;;7.53;2.92;;;21.50;71.00;;;;;;4919536;28;88293;-91
2023/05/10 06:55:33;;;;;;;7.72;3.17;;;21.50;71.70;;;;;;4902139;28;88280;-92
2023/05/10 06:57:59;;;;;;;9.18;3.72;;;21.50;71.00;;;;;;4903456;28;89459;-90
2023/05/10 07:00:25;;;;;;;9.02;3.38;;;21.50;70.80;;;;;;4900384;28;90440;-91
2023/05/10 07:02:50;;;;;;;10.25;3.63;;;21.40;70.90;;;;;;4899502;28;88187;-90
2023/05/10 07:05:16;;;;;;;14.02;4.25;;;21.50;71.10;;;;;;4924307;28;87736;-91
2023/05/10 07:07:42;;;;;;;8.07;3.63;;;21.40;71.30;;;;;;4907121;28;90141;-88
2023/05/10 07:10:08;;;;;;;13.23;5.70;;;21.40;71.40;;;;;;4904233;28;90122;-95
2023/05/10 07:12:34;;;;;;;12.98;4.00;;;21.40;71.00;;;;;;4905563;28;88630;-94
2023/05/10 07:15:00;;;;;;;9.07;3.70;;;21.40;71.30;;;;;;4909413;28;87599;-95
2023/05/10 07:17:26;;;;;;;15.50;4.63;;;21.30;71.40;;;;;;4908951;28;87810;-92
2023/05/10 07:19:51;;;;;;;17.80;6.22;;;21.30;71.50;;;;;;4913046;28;90453;-94
2023/05/10 07:22:17;;;;;;;14.63;5.68;;;21.30;71.80;;;;;;4912516;28;87498;-94
2023/05/10 07:24:43;;;;;;;18.00;5.80;;;21.30;71.80;;;;;;4897064;28;87483;-92
2023/05/10 07:27:09;;;;;;;15.30;5.10;;;21.30;72.10;;;;;;4905865;28;89273;-89
2023/05/10 07:29:35;;;;;;;24.88;8.35;;;21.30;72.40;;;;;;4907737;28;90046;-87
2023/05/10 07:32:01;;;;;;;18.10;6.43;;;21.30;71.30;;;;;;4903020;28;87020;-90
2023/05/10 07:34:28;;;;;;;17.05;5.55;;;21.30;71.50;;;;;;4918790;28;88347;-90
2023/05/10 07:36:53;;;;;;;15.32;5.50;;;21.30;72.20;;;;;;4902243;28;91028;-88
2023/05/10 07:39:20;;;;;;;13.43;5.50;;;21.30;72.30;;;;;;4904315;28;90080;-90
2023/05/10 07:41:46;;;;;;;15.82;6.60;;;21.40;72.30;;;;;;4905461;28;87609;-88
2023/05/10 07:44:12;;;;;;;16.83;6.45;;;21.40;72.20;;;;;;4901369;28;88131;-89
2023/05/10 07:46:38;;;;;;;18.05;7.07;;;21.40;72.30;;;;;;4906753;28;88951;-91
2023/05/10 07:49:03;;;;;;;14.23;5.45;;;21.40;72.30;;;;;;4924796;28;89213;-91
2023/05/10 07:51:29;;;;;;;17.48;6.50;;;21.50;71.40;;;;;;4908458;28;87719;-91
2023/05/10 07:53:55;;;;;;;45.33;12.25;;;21.60;70.40;;;;;;4910164;28;87215;-91
2023/05/10 07:56:27;;;;;;;76.15;21.38;;;21.70;69.40;;;;;;4908640;28;88873;-93
2023/05/10 07:58:54;;;;;;;127.10;34.13;;;21.80;68.90;;;;;;4909214;28;87443;-93
2023/05/10 08:01:20;;;;;;;194.15;51.53;;;21.80;68.50;;;;;;4905841;28;88325;-95
2023/05/10 08:03:46;;;;;;;276.65;70.47;;;21.80;68.10;;;;;;4921683;28;87574;-90
2023/05/10 08:06:12;;;;;;;287.25;79.55;;;21.80;68.20;;;;;;4918415;28;87155;-89
2023/05/10 08:08:40;;;;;;;244.63;66.03;;;21.70;69.20;;;;;;4903256;28;88180;-90
2023/05/10 08:11:05;;;;;;;228.00;57.15;;;21.50;69.30;;;;;;4897650;28;87341;-90
2023/05/10 08:13:31;;;;;;;209.35;51.67;;;21.60;69.50;;;;;;4897699;28;88280;-90
2023/05/10 08:15:57;;;;;;;195.68;50.50;;;21.60;69.00;;;;;;4898004;28;90607;-90
2023/05/10 08:18:23;;;;;;;178.68;49.65;;;21.70;68.90;;;;;;4897290;28;91104;-89
2023/05/10 08:20:48;;;;;;;165.98;45.88;;;21.70;68.90;;;;;;4889085;28;87208;-90
2023/05/10 08:23:14;;;;;;;139.35;40.95;;;21.70;68.50;;;;;;4895995;28;89366;-90
2023/05/10 08:25:40;;;;;;;141.82;40.50;;;21.70;68.50;;;;;;4896609;28;91374;-89
2023/05/10 08:28:05;;;;;;;137.35;41.00;;;21.60;68.30;;;;;;4897441;28;91039;-88
2023/05/10 08:30:31;;;;;;;128.05;38.78;;;21.70;68.50;;;;;;4899741;28;87799;-91
2023/05/10 08:32:57;;;;;;;129.57;39.67;;;21.60;68.40;;;;;;4899336;28;88487;-89
2023/05/10 08:35:23;;;;;;;148.00;40.85;;;21.60;68.60;;;;;;4915803;28;89404;-89
2023/05/10 08:37:48;;;;;;;146.27;38.95;;;21.70;68.70;;;;;;4899693;28;89562;-92
2023/05/10 08:40:15;;;;;;;137.60;36.63;;;21.70;68.40;;;;;;4901748;28;87650;-92
2023/05/10 08:42:48;;;;;;;131.55;37.58;;;21.60;68.70;;;;;;4894371;28;87940;-90
2023/05/10 08:45:15;;;;;;;120.45;35.22;;;21.60;69.00;;;;;;4912431;28;89306;-90
2023/05/10 08:47:41;;;;;;;135.75;38.50;;;21.50;69.60;;;;;;4893232;28;90291;-90
2023/05/10 08:50:08;;;;;;;132.80;36.55;;;21.50;70.60;;;;;;4897855;28;88202;-89
2023/05/10 08:52:39;;;;;;;128.57;36.47;;;21.50;70.90;;;;;;4884235;28;88563;-89
2023/05/10 08:55:06;;;;;;;107.05;32.35;;;21.60;70.70;;;;;;4901899;28;90329;-87
2023/05/10 08:57:32;;;;;;;103.90;33.53;;;21.50;71.10;;;;;;4906611;28;90417;-87
2023/05/10 08:59:59;;;;;;;112.68;31.73;;;21.50;70.90;;;;;;4900328;28;87827;-86
2023/05/10 09:02:25;;;;;;;95.97;31.58;;;21.50;71.60;;;;;;4899702;28;89212;-89
2023/05/10 09:04:51;;;;;;;105.10;33.15;;;21.40;71.60;;;;;;4900398;28;87762;-88
2023/05/10 09:07:17;;;;;;;103.95;30.73;;;21.40;72.10;;;;;;4901065;28;89355;-86
2023/05/10 09:09:43;;;;;;;98.50;29.60;;;21.30;72.50;;;;;;4899718;28;87613;-87
2023/05/10 09:12:11;;;;;;;101.35;31.42;;;21.30;72.40;;;;;;4899683;28;88624;-87
2023/05/10 09:14:38;;;;;;;94.15;27.63;;;21.30;72.50;;;;;;4897167;28;91230;-87
2023/05/10 09:17:04;;;;;;;79.95;26.73;;;21.30;72.10;;;;;;4898194;28;91188;-87
2023/05/10 09:19:30;;;;;;;80.72;28.08;;;21.30;72.30;;;;;;4900552;28;87330;-87
2023/05/10 09:21:56;;;;;;;84.63;28.17;;;21.30;72.50;;;;;;4899245;28;88264;-86
2023/05/10 09:24:26;;;;;;;81.75;28.00;;;21.40;72.70;;;;;;4899336;28;90926;-88
2023/05/10 09:26:52;;;;;;;80.10;29.00;;;21.40;72.60;;;;;;4898325;28;87417;-88
2023/05/10 09:29:18;;;;;;;78.90;25.73;;;21.60;72.70;;;;;;4894990;28;87940;-87
2023/05/10 09:31:51;;;;;;;85.30;27.48;;;21.60;71.90;;;;;;4895136;28;88245;-88
2023/05/10 09:34:32;;;;;;;82.07;26.08;;;21.60;72.60;;;;;;4912659;28;90711;-90
2023/05/10 09:37:02;;;;;;;78.15;26.42;;;21.60;72.80;;;;;;4914476;28;88822;-88
2023/05/10 09:39:32;;;;;;;73.45;25.55;;;21.60;74.10;;;;;;4898405;28;89025;-89
2023/05/10 09:42:00;;;;;;;81.57;26.63;;;21.60;74.50;;;;;;4900341;28;87849;-87
2023/05/10 09:44:26;;;;;;;68.55;24.13;;;21.60;73.70;;;;;;4898555;28;90322;-88
2023/05/10 09:46:52;;;;;;;78.50;26.02;;;21.60;73.90;;;;;;4900413;28;88967;-90
2023/05/10 09:49:20;;;;;;;65.38;21.13;;;21.70;73.20;;;;;;4902178;28;87624;-91
2023/05/10 09:51:46;;;;;;;68.30;23.33;;;21.70;72.70;;;;;;4901063;28;89064;-91
2023/05/10 09:54:16;;;;;;;60.92;22.67;;;21.60;73.20;;;;;;4901160;28;90622;-91
2023/05/10 09:56:42;;;;;;;72.10;21.38;;;21.60;73.50;;;;;;4901729;28;89057;-92
2023/05/10 09:59:11;;;;;;;68.63;23.75;;;21.60;73.60;;;;;;4900188;28;87032;-90
2023/05/10 10:01:37;;;;;;;68.50;23.25;;;21.60;73.60;;;;;;4917160;28;87803;-92
2023/05/10 10:04:05;;;;;;;59.25;21.67;;;21.60;73.50;;;;;;4916608;28;91422;-92
2023/05/10 10:06:39;;;;;;;67.90;21.73;;;21.60;73.60;;;;;;4901013;28;91283;-90
2023/05/10 10:09:06;;;;;;;58.92;20.48;;;21.60;73.50;;;;;;4916193;28;87131;-90
2023/05/10 10:11:32;;;;;;;61.17;22.05;;;21.60;73.60;;;;;;4917268;28;89547;-92
2023/05/10 10:13:58;;;;;;;57.63;22.05;;;21.50;73.50;;;;;;4892783;28;89350;-91
2023/05/10 10:16:25;;;;;;;61.08;21.20;;;21.50;73.50;;;;;;4900240;28;90251;-91
2023/05/10 10:18:51;;;;;;;61.72;20.23;;;21.50;73.50;;;;;;4901183;28;87045;-92
2023/05/10 10:21:17;;;;;;;56.00;20.75;;;21.50;73.40;;;;;;4901420;28;89257;-91
2023/05/10 10:23:43;;;;;;;56.10;19.73;;;21.50;73.40;;;;;;4894375;28;89227;-90
2023/05/10 10:26:11;;;;;;;56.80;20.35;;;21.50;73.50;;;;;;4885893;28;88841;-90
2023/05/10 10:28:52;;;;;;;53.60;19.67;;;21.70;72.30;;;;;;4893886;28;88575;-89
2023/05/10 10:31:45;;;;;;;55.10;20.63;;;21.80;71.90;;;;;;4894407;28;92231;-88
2023/05/10 10:34:21;;;;;;;56.35;21.33;;;21.80;72.20;;;;;;4888499;28;94367;-88
2023/05/10 10:36:47;;;;;;;62.70;21.23;;;21.90;71.60;;;;;;4893480;28;91366;-89
2023/05/10 10:39:14;;;;;;;54.85;18.45;;;22.10;71.80;;;;;;4901904;28;88228;-89
2023/05/10 10:41:49;;;;;;;34.03;13.07;;;22.20;70.90;;;;;;4893391;28;89525;-87
2023/05/10 10:44:24;;;;;;;33.58;11.88;;;22.30;67.80;;;;;;4911140;28;90190;-88
2023/05/10 10:47:24;;;;;;;37.58;13.95;;;22.50;67.30;;;;;;4897241;28;87707;-92
2023/05/10 10:50:00;;;;;;;34.55;14.57;;;22.50;67.90;;;;;;4895954;28;87798;-88
2023/05/10 10:53:10;;;;;;;37.50;12.85;;;22.60;68.30;;;;;;4912269;28;87965;-89
2023/05/10 10:55:48;;;;;;;40.90;14.25;;;22.70;68.60;;;;;;4893145;28;94499;-87
2023/05/10 10:58:33;;;;;;;38.75;14.07;;;22.70;69.10;;;;;;4896810;28;91349;-89
2023/05/10 11:03:34;;;;;;;53.58;16.25;;;22.70;69.70;;;;;;4994635;23;87581;-88
2023/05/10 11:06:01;;;;;;;37.45;14.70;;;22.60;70.00;;;;;;4925619;28;90756;-90
2023/05/10 11:08:44;;;;;;;35.75;13.23;;;22.60;70.50;;;;;;4948789;28;90859;-89
2023/05/10 11:11:14;;;;;;;32.35;13.70;;;22.60;70.70;;;;;;4926322;28;87677;-92
2023/05/10 11:13:40;;;;;;;43.88;13.60;;;22.60;70.90;;;;;;4909464;28;88644;-92
2023/05/10 11:16:25;;;;;;;35.30;13.55;;;22.70;71.10;;;;;;4925955;28;90756;-92
2023/05/10 11:19:07;;;;;;;37.05;13.80;;;22.70;71.50;;;;;;4906567;28;89418;-94
2023/05/10 11:22:15;;;;;;;38.33;12.65;;;22.70;71.60;;;;;;4928489;28;88677;-92
2023/05/10 11:24:58;;;;;;;38.22;14.43;;;22.70;70.70;;;;;;4921911;28;88349;-91
2023/05/10 11:27:23;;;;;;;42.28;14.18;;;22.60;71.00;;;;;;4907162;28;89806;-92
2023/05/10 11:29:56;;;;;;;40.83;12.73;;;22.60;71.70;;;;;;4924312;28;87959;-88
2023/05/10 11:32:22;;;;;;;39.15;13.35;;;22.70;71.70;;;;;;4915093;28;87461;-90
2023/05/10 11:34:50;;;;;;;52.25;14.05;;;22.80;71.80;;;;;;4917026;28;91077;-90
2023/05/10 11:37:19;;;;;;;48.90;13.63;;;22.80;71.60;;;;;;4921533;28;90511;-90
2023/05/10 11:39:47;;;;;;;35.38;12.45;;;22.80;71.80;;;;;;4929155;28;87282;-90
2023/05/10 11:42:57;;;;;;;31.88;10.40;;;22.70;71.60;;;;;;4925928;28;87304;-92
2023/05/10 11:45:46;;;;;;;33.92;12.80;;;22.80;68.10;;;;;;4902960;28;87877;-90
2023/05/10 11:48:13;;;;;;;35.80;11.98;;;22.60;70.00;;;;;;4928741;28;88701;-88
2023/05/10 11:50:38;;;;;;;25.75;9.43;;;22.60;70.20;;;;;;4917190;28;91586;-92
2023/05/10 11:53:12;;;;;;;34.90;10.20;;;22.40;67.90;;;;;;4920905;28;88125;-91
2023/05/10 11:56:08;;;;;;;29.23;10.63;;;22.50;69.40;;;;;;4936205;28;90584;-87
2023/05/10 11:59:57;;;;;;;30.10;10.98;;;22.50;69.70;;;;;;4935336;28;87690;-87
2023/05/10 12:02:45;;;;;;;35.00;11.07;;;22.40;71.60;;;;;;4915955;28;88502;-86
2023/05/10 12:05:11;;;;;;;32.80;10.75;;;22.30;72.20;;;;;;4927822;28;87635;-90
2023/05/10 12:08:15;;;;;;;31.90;10.32;;;22.40;72.00;;;;;;4932159;28;86138;-87
2023/05/10 12:11:37;;;;;;;31.25;10.43;;;22.40;72.00;;;;;;4890270;28;92345;-86
2023/05/10 12:14:16;;;;;;;27.88;10.88;;;22.40;71.90;;;;;;4918848;28;88296;-86
2023/05/10 12:16:52;;;;;;;30.38;10.93;;;22.40;72.40;;;;;;4935095;28;88071;-86
2023/05/10 12:20:16;;;;;;;27.15;10.95;;;22.40;72.10;;;;;;4939815;28;86950;-86
2023/05/10 12:23:42;;;;;;;25.35;10.50;;;22.40;72.20;;;;;;4894666;28;94044;-86
2023/05/10 12:27:03;;;;;;;34.08;10.52;;;22.50;72.70;;;;;;4953435;28;87063;-86
2023/05/10 12:29:45;;;;;;;24.30;10.05;;;22.50;72.50;;;;;;4941358;28;86893;-86
2023/05/10 12:33:08;;;;;;;31.35;10.88;;;22.40;72.60;;;;;;4952605;28;86451;-85
2023/05/10 12:35:59;;;;;;;33.58;10.75;;;22.40;72.80;;;;;;4948613;28;89017;-85
2023/05/10 12:38:29;;;;;;;26.35;10.60;;;22.50;72.80;;;;;;4950496;23;90091;-86
2023/05/10 12:40:56;;;;;;;34.55;10.55;;;22.40;72.90;;;;;;4876482;28;87800;-85
2023/05/10 12:43:22;;;;;;;27.70;10.88;;;22.40;73.00;;;;;;4873066;28;88965;-85
2023/05/10 12:45:48;;;;;;;26.42;10.20;;;22.30;73.20;;;;;;4886513;28;91470;-85
2023/05/10 12:48:15;;;;;;;23.55;9.18;;;22.40;73.00;;;;;;4878523;28;91467;-87
2023/05/10 12:50:41;;;;;;;27.15;10.20;;;22.50;73.00;;;;;;4873529;28;88049;-86
2023/05/10 12:53:25;;;;;;;21.33;8.85;;;22.50;72.60;;;;;;4878487;28;87950;-85
2023/05/10 12:55:51;;;;;;;27.33;9.45;;;22.50;72.60;;;;;;4877786;28;89193;-86